createdAt,value
2018-03-11T00:03:52.571Z,67.09
2018-03-11T00:08:55.085Z,66.80
2018-03-11T00:13:57.559Z,66.68
2018-03-11T00:19:00.068Z,66.55
2018-03-11T00:24:02.536Z,66.38
2018-03-11T00:29:05.012Z,66.66
2018-03-11T00:34:07.510Z,66.86
2018-03-11T00:39:09.993Z,66.44
2018-03-11T00:44:12.467Z,66.93
2018-03-11T00:49:14.956Z,67.19
2018-03-11T00:54:17.444Z,67.12
2018-03-11T00:59:19.911Z,66.61
2018-03-11T01:04:22.396Z,66.26
2018-03-11T01:09:24.869Z,65.72
2018-03-11T01:14:27.333Z,65.51
2018-03-11T01:19:29.844Z,65.72
2018-03-11T01:24:32.320Z,65.68
2018-03-11T01:29:34.788Z,65.54
2018-03-11T01:34:37.283Z,65.25
2018-03-11T01:39:39.808Z,65.42
2018-03-11T01:44:42.280Z,65.44
2018-03-11T01:49:44.792Z,65.66
2018-03-11T01:54:47.260Z,65.91
2018-03-11T01:59:49.744Z,66.56
2018-03-11T02:04:52.299Z,66.31
2018-03-11T02:09:54.780Z,67.31
2018-03-11T02:14:57.240Z,67.99
2018-03-11T02:19:59.720Z,67.83
2018-03-11T02:25:02.178Z,67.94
2018-03-11T02:30:04.641Z,68.28
2018-03-11T02:35:07.104Z,68.69
2018-03-11T02:40:09.580Z,69.34
2018-03-11T02:45:12.057Z,69.70
2018-03-11T02:50:14.572Z,69.95
2018-03-11T02:55:17.046Z,70.09
2018-03-11T03:00:19.557Z,70.22
2018-03-11T03:05:22.032Z,70.28
2018-03-11T03:10:24.522Z,70.44
2018-03-11T03:15:27.127Z,70.56
2018-03-11T03:20:29.594Z,70.76
2018-03-11T03:25:32.075Z,71.01
2018-03-11T03:30:34.554Z,71.05
2018-03-11T03:35:37.053Z,71.22
2018-03-11T03:40:39.592Z,71.19
2018-03-11T03:45:42.091Z,71.23
2018-03-11T03:50:44.544Z,71.14
2018-03-11T03:55:47.028Z,71.70
2018-03-11T04:00:50.318Z,71.76
2018-03-11T04:05:52.788Z,72.03
2018-03-11T04:10:55.267Z,72.18
2018-03-11T04:15:57.734Z,72.25
2018-03-11T04:21:00.201Z,72.26
2018-03-11T04:26:02.710Z,72.37
2018-03-11T04:31:05.179Z,72.44
2018-03-11T04:36:07.676Z,72.42
2018-03-11T04:41:10.166Z,72.56
2018-03-11T04:46:13.614Z,72.54
2018-03-11T04:51:16.115Z,72.39
2018-03-11T04:56:18.588Z,72.45
2018-03-11T05:01:21.068Z,72.35
2018-03-11T05:06:23.575Z,72.35
2018-03-11T05:11:26.045Z,72.51
2018-03-11T05:16:28.525Z,72.64
2018-03-11T05:21:31.006Z,72.58
2018-03-11T05:26:33.494Z,72.57
2018-03-11T05:31:35.961Z,72.60
2018-03-11T05:36:38.446Z,72.52
2018-03-11T05:41:40.904Z,72.48
2018-03-11T05:46:43.397Z,72.48
2018-03-11T05:51:45.844Z,72.47
2018-03-11T05:56:48.343Z,72.41
2018-03-11T06:01:50.840Z,72.45
2018-03-11T06:06:53.312Z,72.41
2018-03-11T06:11:55.808Z,72.54
2018-03-11T06:16:59.636Z,72.55
2018-03-11T06:22:02.481Z,72.58
2018-03-11T06:27:04.968Z,72.72
2018-03-11T06:32:07.420Z,72.72
2018-03-11T06:37:09.881Z,72.80
2018-03-11T06:42:12.355Z,72.77
2018-03-11T06:47:14.851Z,72.56
2018-03-11T06:52:17.378Z,72.67
2018-03-11T06:57:19.812Z,72.57
2018-03-11T07:02:22.268Z,72.19
2018-03-11T07:07:24.725Z,71.99
2018-03-11T07:12:27.318Z,71.34
2018-03-11T07:17:29.810Z,70.56
2018-03-11T07:22:32.285Z,69.54
2018-03-11T07:27:34.756Z,67.37
2018-03-11T07:32:37.223Z,66.64
2018-03-11T07:37:39.673Z,65.53
2018-03-11T07:42:42.136Z,64.68
2018-03-11T07:47:44.605Z,64.28
2018-03-11T07:52:47.105Z,63.30
2018-03-11T07:57:49.584Z,63.18
2018-03-11T08:02:52.161Z,62.47
2018-03-11T08:07:54.637Z,61.46
2018-03-11T08:12:57.111Z,61.23
2018-03-11T08:17:59.572Z,60.82
2018-03-11T08:23:02.021Z,60.12
2018-03-11T08:28:04.503Z,59.46
2018-03-11T08:33:06.953Z,59.42
2018-03-11T08:38:09.442Z,59.71
2018-03-11T08:43:11.910Z,58.95
2018-03-11T08:48:14.392Z,58.51
2018-03-11T08:53:16.869Z,57.37
2018-03-11T08:58:19.353Z,56.34
2018-03-11T09:03:21.820Z,54.72
2018-03-11T09:08:25.075Z,53.85
2018-03-11T09:13:27.573Z,52.64
2018-03-11T09:18:30.062Z,52.00
2018-03-11T09:23:32.578Z,50.79
2018-03-11T09:28:35.074Z,49.80
2018-03-11T09:33:41.530Z,50.71
2018-03-11T09:38:44.003Z,50.43
2018-03-11T09:43:46.489Z,50.46
2018-03-11T09:48:48.966Z,49.76
2018-03-11T09:53:51.477Z,50.35
2018-03-11T09:58:53.960Z,47.89
2018-03-11T10:03:56.476Z,44.75
2018-03-11T10:08:58.932Z,42.83
2018-03-11T10:14:01.430Z,40.37
2018-03-11T10:19:03.919Z,38.30
2018-03-11T10:24:06.409Z,38.20
2018-03-11T10:29:08.919Z,40.09
2018-03-11T10:34:11.478Z,41.86
2018-03-11T10:39:13.966Z,38.82
2018-03-11T10:44:16.476Z,40.15
2018-03-11T10:49:18.975Z,41.29
2018-03-11T10:54:21.469Z,40.23
2018-03-11T10:59:23.952Z,43.31
2018-03-11T11:04:32.026Z,43.74
2018-03-11T11:09:34.612Z,43.13
2018-03-11T11:14:37.090Z,43.50
2018-03-11T11:20:11.170Z,43.84
2018-03-11T11:25:31.039Z,45.37
2018-03-11T11:30:33.679Z,44.39
2018-03-11T11:35:36.344Z,42.60
2018-03-11T11:40:38.848Z,41.74
2018-03-11T11:45:41.314Z,42.02
2018-03-11T11:50:43.769Z,42.53
2018-03-11T11:55:46.231Z,43.18
2018-03-11T12:00:48.986Z,43.55
2018-03-11T12:05:53.424Z,43.74
2018-03-11T12:10:56.012Z,42.46
2018-03-11T12:15:58.484Z,41.90
2018-03-11T12:21:00.946Z,42.52
2018-03-11T12:26:05.292Z,42.83
2018-03-11T12:31:07.786Z,42.83
2018-03-11T12:36:10.259Z,41.55
2018-03-11T12:41:12.773Z,42.57
2018-03-11T12:46:15.237Z,43.29
2018-03-11T12:51:17.703Z,42.82
2018-03-11T12:56:23.012Z,44.43
2018-03-11T13:01:25.558Z,42.48
2018-03-11T13:06:28.043Z,42.13
2018-03-11T13:11:30.555Z,41.41
2018-03-11T13:16:32.991Z,41.13
2018-03-11T13:21:35.505Z,42.03
2018-03-11T13:26:37.960Z,40.89
2018-03-11T13:31:40.416Z,40.05
2018-03-11T13:36:42.898Z,39.34
2018-03-11T13:41:45.362Z,40.20
2018-03-11T13:46:56.747Z,40.65
2018-03-11T13:52:10.989Z,41.35
2018-03-11T14:03:07.193Z,41.55
2018-03-11T14:08:09.679Z,40.92
2018-03-11T14:13:12.153Z,40.93
2018-03-11T14:18:14.656Z,40.96
2018-03-11T14:23:17.129Z,40.34
2018-03-11T14:28:19.617Z,40.60
2018-03-11T14:33:22.709Z,41.73
2018-03-11T14:38:25.171Z,40.65
2018-03-11T14:43:27.860Z,40.16
2018-03-11T14:48:30.332Z,40.79
2018-03-11T14:53:32.972Z,41.60
2018-03-11T14:58:35.446Z,42.09
2018-03-11T15:03:37.907Z,41.66
2018-03-11T15:08:40.378Z,42.27
2018-03-11T15:13:42.888Z,41.18
2018-03-11T15:18:45.332Z,41.63
2018-03-11T15:23:47.804Z,42.38
2018-03-11T15:28:50.264Z,42.57
2018-03-11T15:33:52.741Z,42.87
2018-03-11T15:38:55.214Z,43.83
2018-03-11T15:43:57.650Z,44.48
2018-03-11T15:49:00.119Z,44.51
2018-03-11T15:54:02.594Z,44.60
2018-03-11T15:59:05.053Z,45.00
2018-03-11T16:04:07.606Z,45.54
2018-03-11T16:09:10.073Z,45.90
2018-03-11T16:14:13.713Z,45.96
2018-03-11T16:19:17.544Z,46.47
2018-03-11T16:24:28.382Z,46.51
2018-03-11T16:29:22.568Z,46.83
2018-03-11T16:34:25.117Z,46.69
2018-03-11T16:39:28.053Z,47.27
2018-03-11T16:44:31.108Z,47.89
2018-03-11T16:49:34.000Z,48.48
2018-03-11T16:54:36.553Z,49.05
2018-03-11T16:59:39.007Z,49.73
2018-03-11T17:04:41.500Z,50.43
2018-03-11T17:09:44.066Z,51.11
2018-03-11T17:14:46.544Z,52.29
2018-03-11T17:19:49.045Z,53.74
2018-03-11T17:24:51.511Z,54.63
2018-03-11T17:29:54.136Z,54.63
2018-03-11T17:34:56.965Z,55.07
2018-03-11T17:39:59.701Z,55.52
2018-03-11T17:45:02.249Z,55.89
2018-03-11T17:50:04.748Z,57.24
2018-03-11T17:55:07.299Z,56.89
2018-03-11T18:00:09.744Z,57.51
2018-03-11T18:05:12.289Z,58.49
2018-03-11T18:10:14.767Z,59.23
2018-03-11T18:15:17.271Z,59.44
2018-03-11T18:20:19.747Z,59.75
2018-03-11T18:25:22.254Z,59.10
2018-03-11T18:30:24.721Z,58.86
2018-03-11T18:35:27.187Z,58.73
2018-03-11T18:40:29.704Z,58.71
2018-03-11T18:45:32.193Z,58.73
2018-03-11T18:50:34.682Z,59.35
2018-03-11T18:55:37.185Z,59.36
2018-03-11T19:00:39.640Z,59.78
2018-03-11T19:05:42.129Z,60.25
2018-03-11T19:10:44.599Z,60.69
2018-03-11T19:15:47.228Z,61.06
2018-03-11T19:20:49.709Z,61.17
2018-03-11T19:25:53.493Z,61.08
2018-03-11T19:30:56.230Z,61.26
2018-03-11T19:35:58.707Z,61.45
2018-03-11T19:41:01.286Z,61.30
2018-03-11T19:46:05.135Z,61.09
2018-03-11T19:51:07.636Z,60.32
2018-03-11T19:56:10.083Z,59.94
2018-03-11T20:01:12.546Z,59.32
2018-03-11T20:06:15.031Z,58.73
2018-03-11T20:11:17.492Z,58.82
2018-03-11T20:16:19.989Z,58.84
2018-03-11T20:21:22.465Z,58.88
2018-03-11T20:26:24.927Z,59.65
2018-03-11T20:31:27.442Z,60.10
2018-03-11T20:36:29.929Z,60.30
2018-03-11T20:41:32.395Z,60.58
2018-03-11T20:46:34.842Z,60.99
2018-03-11T20:51:37.300Z,61.35
2018-03-11T20:56:39.773Z,61.89
2018-03-11T21:01:42.286Z,61.72
2018-03-11T21:06:45.216Z,61.31
2018-03-11T21:11:47.679Z,61.21
2018-03-11T21:16:50.147Z,61.15
2018-03-11T21:21:52.616Z,61.61
2018-03-11T21:26:55.119Z,61.96
2018-03-11T21:31:57.584Z,62.21
2018-03-11T21:37:00.051Z,62.50
2018-03-11T21:42:02.560Z,63.24
2018-03-11T21:47:05.049Z,63.61
2018-03-11T21:52:07.527Z,64.16
2018-03-11T21:57:10.002Z,64.16
2018-03-11T22:02:12.522Z,64.11
2018-03-11T22:07:14.965Z,64.88
2018-03-11T22:12:17.420Z,65.47
2018-03-11T22:17:19.884Z,66.24
2018-03-11T22:22:22.385Z,66.28
2018-03-11T22:27:24.844Z,66.61
2018-03-11T22:32:27.304Z,66.84
2018-03-11T22:37:29.780Z,67.16
2018-03-11T22:42:32.266Z,67.44
2018-03-11T22:47:34.763Z,67.59
2018-03-11T22:52:37.233Z,67.42
2018-03-11T22:57:39.713Z,67.44
2018-03-11T23:02:42.182Z,67.67
2018-03-11T23:07:44.688Z,67.46
2018-03-11T23:12:47.190Z,67.12
2018-03-11T23:17:49.636Z,67.18
2018-03-11T23:22:52.096Z,67.25
2018-03-11T23:27:54.579Z,67.63
2018-03-11T23:32:57.025Z,68.02
2018-03-11T23:37:59.484Z,68.22
2018-03-11T23:43:01.950Z,68.45
2018-03-11T23:48:04.428Z,68.57
2018-03-11T23:53:06.889Z,68.99
2018-03-11T23:58:09.373Z,69.43
